sensor_id;sensor_type;location;lat;lon;timestamp;P1;durP1;ratioP1;P2;durP2;ratioP2
66593;SDS011;53450;42.584;23.366;2023-03-14T00:00:59;17.13;;;8.23;;
66593;SDS011;53450;42.584;23.366;2023-03-14T00:03:25;17.70;;;9.40;;
66593;SDS011;53450;42.584;23.366;2023-03-14T00:05:50;23.87;;;7.90;;
66593;SDS011;53450;42.584;23.366;2023-03-14T00:08:16;13.47;;;7.17;;
66593;SDS011;53450;42.584;23.366;2023-03-14T00:10:41;12.67;;;7.17;;
66593;SDS011;53450;42.584;23.366;2023-03-14T00:13:07;11.10;;;6.90;;
66593;SDS011;53450;42.584;23.366;2023-03-14T00:15:33;8.63;;;6.23;;
66593;SDS011;53450;42.584;23.366;2023-03-14T00:17:59;9.57;;;5.93;;
66593;SDS011;53450;42.584;23.366;2023-03-14T00:20:25;9.43;;;6.20;;
66593;SDS011;53450;42.584;23.366;2023-03-14T00:22:50;8.10;;;5.47;;
66593;SDS011;53450;42.584;23.366;2023-03-14T00:25:17;11.93;;;7.23;;
66593;SDS011;53450;42.584;23.366;2023-03-14T00:27:42;10.77;;;6.00;;
66593;SDS011;53450;42.584;23.366;2023-03-14T00:30:08;14.73;;;7.10;;
66593;SDS011;53450;42.584;23.366;2023-03-14T00:32:35;23.17;;;9.67;;
66593;SDS011;53450;42.584;23.366;2023-03-14T00:35:01;10.80;;;6.17;;
66593;SDS011;53450;42.584;23.366;2023-03-14T00:37:29;10.37;;;5.73;;
66593;SDS011;53450;42.584;23.366;2023-03-14T00:39:55;12.10;;;6.33;;
66593;SDS011;53450;42.584;23.366;2023-03-14T00:42:20;11.40;;;6.33;;
66593;SDS011;53450;42.584;23.366;2023-03-14T00:44:46;17.80;;;7.33;;
66593;SDS011;53450;42.584;23.366;2023-03-14T00:47:14;12.03;;;7.23;;
66593;SDS011;53450;42.584;23.366;2023-03-14T00:49:41;15.80;;;7.73;;
66593;SDS011;53450;42.584;23.366;2023-03-14T00:52:08;15.10;;;7.40;;
66593;SDS011;53450;42.584;23.366;2023-03-14T00:54:34;14.20;;;7.63;;
66593;SDS011;53450;42.584;23.366;2023-03-14T00:57:00;18.93;;;7.37;;
66593;SDS011;53450;42.584;23.366;2023-03-14T00:59:26;12.00;;;6.73;;
66593;SDS011;53450;42.584;23.366;2023-03-14T01:01:51;9.47;;;6.17;;
66593;SDS011;53450;42.584;23.366;2023-03-14T01:04:18;27.83;;;9.23;;
66593;SDS011;53450;42.584;23.366;2023-03-14T01:06:43;105.33;;;27.17;;
66593;SDS011;53450;42.584;23.366;2023-03-14T01:09:33;74.93;;;21.63;;
66593;SDS011;53450;42.584;23.366;2023-03-14T01:11:59;37.20;;;12.20;;
66593;SDS011;53450;42.584;23.366;2023-03-14T01:14:25;17.87;;;7.33;;
66593;SDS011;53450;42.584;23.366;2023-03-14T01:16:50;17.63;;;8.67;;
66593;SDS011;53450;42.584;23.366;2023-03-14T01:19:16;40.43;;;14.67;;
66593;SDS011;53450;42.584;23.366;2023-03-14T01:21:41;14.70;;;8.97;;
66593;SDS011;53450;42.584;23.366;2023-03-14T01:24:07;12.77;;;7.80;;
66593;SDS011;53450;42.584;23.366;2023-03-14T01:26:33;11.20;;;6.63;;
66593;SDS011;53450;42.584;23.366;2023-03-14T01:29:00;9.80;;;5.77;;
66593;SDS011;53450;42.584;23.366;2023-03-14T01:31:28;22.80;;;8.47;;
66593;SDS011;53450;42.584;23.366;2023-03-14T01:33:54;23.33;;;6.83;;
66593;SDS011;53450;42.584;23.366;2023-03-14T01:36:20;12.03;;;6.37;;
66593;SDS011;53450;42.584;23.366;2023-03-14T01:38:45;11.03;;;6.47;;
66593;SDS011;53450;42.584;23.366;2023-03-14T01:41:16;8.73;;;5.57;;
66593;SDS011;53450;42.584;23.366;2023-03-14T01:43:46;15.77;;;5.43;;
66593;SDS011;53450;42.584;23.366;2023-03-14T01:49:28;7.90;;;5.20;;
66593;SDS011;53450;42.584;23.366;2023-03-14T01:51:42;9.02;;;5.93;;
66593;SDS011;53450;42.584;23.366;2023-03-14T01:57:05;6.78;;;5.35;;
66593;SDS011;53450;42.584;23.366;2023-03-14T01:59:34;10.53;;;5.27;;
66593;SDS011;53450;42.584;23.366;2023-03-14T02:02:02;11.10;;;5.83;;
66593;SDS011;53450;42.584;23.366;2023-03-14T02:04:32;8.50;;;5.40;;
66593;SDS011;53450;42.584;23.366;2023-03-14T02:07:01;10.20;;;5.50;;
66593;SDS011;53450;42.584;23.366;2023-03-14T02:09:37;12.30;;;6.87;;
66593;SDS011;53450;42.584;23.366;2023-03-14T02:12:11;11.23;;;6.33;;
66593;SDS011;53450;42.584;23.366;2023-03-14T02:14:59;12.10;;;6.33;;
66593;SDS011;53450;42.584;23.366;2023-03-14T02:17:47;13.73;;;6.80;;
66593;SDS011;53450;42.584;23.366;2023-03-14T02:23:08;13.20;;;8.27;;
66593;SDS011;53450;42.584;23.366;2023-03-14T02:25:39;19.83;;;9.33;;
66593;SDS011;53450;42.584;23.366;2023-03-14T02:28:20;13.70;;;7.53;;
66593;SDS011;53450;42.584;23.366;2023-03-14T02:30:51;13.30;;;7.60;;
66593;SDS011;53450;42.584;23.366;2023-03-14T02:33:17;18.07;;;7.77;;
66593;SDS011;53450;42.584;23.366;2023-03-14T02:35:46;11.73;;;7.57;;
66593;SDS011;53450;42.584;23.366;2023-03-14T02:38:22;14.07;;;7.53;;
66593;SDS011;53450;42.584;23.366;2023-03-14T02:40:52;14.03;;;7.03;;
66593;SDS011;53450;42.584;23.366;2023-03-14T02:43:17;16.47;;;7.10;;
66593;SDS011;53450;42.584;23.366;2023-03-14T02:45:49;13.20;;;6.88;;
66593;SDS011;53450;42.584;23.366;2023-03-14T02:48:26;13.80;;;6.63;;
66593;SDS011;53450;42.584;23.366;2023-03-14T02:50:55;18.47;;;7.57;;
66593;SDS011;53450;42.584;23.366;2023-03-14T02:53:30;17.57;;;8.00;;
66593;SDS011;53450;42.584;23.366;2023-03-14T02:56:04;11.30;;;6.63;;
66593;SDS011;53450;42.584;23.366;2023-03-14T02:58:32;9.83;;;7.03;;
66593;SDS011;53450;42.584;23.366;2023-03-14T03:01:05;12.50;;;7.17;;
66593;SDS011;53450;42.584;23.366;2023-03-14T03:03:31;13.57;;;7.43;;
66593;SDS011;53450;42.584;23.366;2023-03-14T03:05:57;24.13;;;9.67;;
66593;SDS011;53450;42.584;23.366;2023-03-14T03:08:23;17.03;;;10.07;;
66593;SDS011;53450;42.584;23.366;2023-03-14T03:11:16;20.20;;;10.73;;
66593;SDS011;53450;42.584;23.366;2023-03-14T03:13:42;19.60;;;10.67;;
66593;SDS011;53450;42.584;23.366;2023-03-14T03:16:08;16.57;;;9.57;;
66593;SDS011;53450;42.584;23.366;2023-03-14T03:18:34;16.47;;;9.23;;
66593;SDS011;53450;42.584;23.366;2023-03-14T03:21:00;18.97;;;8.93;;
66593;SDS011;53450;42.584;23.366;2023-03-14T03:23:27;18.37;;;8.50;;
66593;SDS011;53450;42.584;23.366;2023-03-14T03:25:53;16.90;;;8.77;;
66593;SDS011;53450;42.584;23.366;2023-03-14T03:28:18;11.40;;;6.80;;
66593;SDS011;53450;42.584;23.366;2023-03-14T03:30:44;11.73;;;6.37;;
66593;SDS011;53450;42.584;23.366;2023-03-14T03:33:11;11.90;;;7.17;;
66593;SDS011;53450;42.584;23.366;2023-03-14T03:35:47;13.03;;;6.87;;
66593;SDS011;53450;42.584;23.366;2023-03-14T03:38:18;10.55;;;5.95;;
66593;SDS011;53450;42.584;23.366;2023-03-14T03:40:47;11.47;;;6.07;;
66593;SDS011;53450;42.584;23.366;2023-03-14T03:43:13;10.83;;;6.57;;
66593;SDS011;53450;42.584;23.366;2023-03-14T03:45:42;12.67;;;5.90;;
66593;SDS011;53450;42.584;23.366;2023-03-14T03:48:08;9.20;;;6.10;;
66593;SDS011;53450;42.584;23.366;2023-03-14T03:50:33;13.43;;;6.17;;
66593;SDS011;53450;42.584;23.366;2023-03-14T03:52:59;14.90;;;6.40;;
66593;SDS011;53450;42.584;23.366;2023-03-14T03:55:25;9.33;;;5.63;;
66593;SDS011;53450;42.584;23.366;2023-03-14T03:57:54;10.87;;;5.73;;
66593;SDS011;53450;42.584;23.366;2023-03-14T04:00:19;12.63;;;5.80;;
66593;SDS011;53450;42.584;23.366;2023-03-14T04:02:46;13.70;;;6.17;;
66593;SDS011;53450;42.584;23.366;2023-03-14T04:05:14;7.97;;;5.77;;
66593;SDS011;53450;42.584;23.366;2023-03-14T04:07:47;9.00;;;5.73;;
66593;SDS011;53450;42.584;23.366;2023-03-14T04:10:17;13.73;;;7.30;;
66593;SDS011;53450;42.584;23.366;2023-03-14T04:12:56;10.80;;;5.10;;
66593;SDS011;53450;42.584;23.366;2023-03-14T04:15:25;10.67;;;5.90;;
66593;SDS011;53450;42.584;23.366;2023-03-14T04:17:58;15.40;;;6.63;;
66593;SDS011;53450;42.584;23.366;2023-03-14T04:20:29;9.47;;;6.17;;
66593;SDS011;53450;42.584;23.366;2023-03-14T04:22:54;9.40;;;5.53;;
66593;SDS011;53450;42.584;23.366;2023-03-14T04:25:20;13.80;;;5.30;;
66593;SDS011;53450;42.584;23.366;2023-03-14T04:27:55;8.60;;;5.40;;
66593;SDS011;53450;42.584;23.366;2023-03-14T04:30:23;8.83;;;4.80;;
66593;SDS011;53450;42.584;23.366;2023-03-14T04:32:52;8.27;;;5.40;;
66593;SDS011;53450;42.584;23.366;2023-03-14T04:35:20;12.90;;;5.20;;
66593;SDS011;53450;42.584;23.366;2023-03-14T04:37:45;9.90;;;5.60;;
66593;SDS011;53450;42.584;23.366;2023-03-14T04:40:15;21.43;;;8.17;;
66593;SDS011;53450;42.584;23.366;2023-03-14T04:45:49;9.80;;;5.00;;
66593;SDS011;53450;42.584;23.366;2023-03-14T04:48:14;29.77;;;5.43;;
66593;SDS011;53450;42.584;23.366;2023-03-14T04:50:41;17.87;;;6.90;;
66593;SDS011;53450;42.584;23.366;2023-03-14T04:53:08;9.23;;;6.03;;
66593;SDS011;53450;42.584;23.366;2023-03-14T04:55:34;8.10;;;5.07;;
66593;SDS011;53450;42.584;23.366;2023-03-14T04:58:06;7.10;;;5.20;;
66593;SDS011;53450;42.584;23.366;2023-03-14T05:00:32;17.60;;;7.93;;
66593;SDS011;53450;42.584;23.366;2023-03-14T05:03:30;28.70;;;12.27;;
66593;SDS011;53450;42.584;23.366;2023-03-14T05:06:04;25.87;;;12.77;;
66593;SDS011;53450;42.584;23.366;2023-03-14T05:08:32;10.90;;;6.30;;
66593;SDS011;53450;42.584;23.366;2023-03-14T05:11:30;14.57;;;5.80;;
66593;SDS011;53450;42.584;23.366;2023-03-14T05:14:06;11.00;;;5.13;;
66593;SDS011;53450;42.584;23.366;2023-03-14T05:16:56;5.30;;;4.77;;
66593;SDS011;53450;42.584;23.366;2023-03-14T05:19:41;9.47;;;5.40;;
66593;SDS011;53450;42.584;23.366;2023-03-14T05:22:29;16.17;;;8.83;;
66593;SDS011;53450;42.584;23.366;2023-03-14T05:25:21;13.30;;;8.73;;
66593;SDS011;53450;42.584;23.366;2023-03-14T05:28:12;16.87;;;9.87;;
66593;SDS011;53450;42.584;23.366;2023-03-14T05:33:41;23.70;;;8.97;;
66593;SDS011;53450;42.584;23.366;2023-03-14T05:36:25;23.47;;;8.20;;
66593;SDS011;53450;42.584;23.366;2023-03-14T05:39:02;27.63;;;10.27;;
66593;SDS011;53450;42.584;23.366;2023-03-14T05:41:46;26.77;;;12.33;;
66593;SDS011;53450;42.584;23.366;2023-03-14T05:44:36;51.03;;;23.37;;
66593;SDS011;53450;42.584;23.366;2023-03-14T05:47:12;89.63;;;32.53;;
66593;SDS011;53450;42.584;23.366;2023-03-14T05:49:56;55.13;;;24.90;;
66593;SDS011;53450;42.584;23.366;2023-03-14T05:52:41;71.50;;;27.50;;
66593;SDS011;53450;42.584;23.366;2023-03-14T05:55:29;57.07;;;24.43;;
66593;SDS011;53450;42.584;23.366;2023-03-14T05:58:30;66.63;;;30.20;;
66593;SDS011;53450;42.584;23.366;2023-03-14T06:01:08;65.50;;;31.47;;
66593;SDS011;53450;42.584;23.366;2023-03-14T06:03:53;46.67;;;23.00;;
66593;SDS011;53450;42.584;23.366;2023-03-14T06:06:19;31.90;;;14.60;;
66593;SDS011;53450;42.584;23.366;2023-03-14T06:08:45;24.97;;;11.87;;
66593;SDS011;53450;42.584;23.366;2023-03-14T06:11:11;19.60;;;9.67;;
66593;SDS011;53450;42.584;23.366;2023-03-14T06:13:36;11.33;;;5.87;;
66593;SDS011;53450;42.584;23.366;2023-03-14T06:16:02;10.30;;;5.30;;
66593;SDS011;53450;42.584;23.366;2023-03-14T06:18:28;13.17;;;4.00;;
66593;SDS011;53450;42.584;23.366;2023-03-14T06:20:56;6.77;;;3.90;;
66593;SDS011;53450;42.584;23.366;2023-03-14T06:23:24;8.30;;;4.10;;
66593;SDS011;53450;42.584;23.366;2023-03-14T06:25:51;7.43;;;3.70;;
66593;SDS011;53450;42.584;23.366;2023-03-14T06:28:16;50.37;;;5.80;;
66593;SDS011;53450;42.584;23.366;2023-03-14T06:30:42;7.87;;;4.60;;
66593;SDS011;53450;42.584;23.366;2023-03-14T06:33:11;6.23;;;4.80;;
66593;SDS011;53450;42.584;23.366;2023-03-14T06:35:37;11.87;;;4.27;;
66593;SDS011;53450;42.584;23.366;2023-03-14T06:38:02;5.07;;;4.10;;
66593;SDS011;53450;42.584;23.366;2023-03-14T06:40:29;6.97;;;4.73;;
66593;SDS011;53450;42.584;23.366;2023-03-14T06:43:05;11.37;;;5.87;;
66593;SDS011;53450;42.584;23.366;2023-03-14T06:45:32;7.17;;;5.07;;
66593;SDS011;53450;42.584;23.366;2023-03-14T06:48:01;6.90;;;5.10;;
66593;SDS011;53450;42.584;23.366;2023-03-14T06:50:36;9.40;;;5.00;;
66593;SDS011;53450;42.584;23.366;2023-03-14T06:53:03;7.73;;;4.53;;
66593;SDS011;53450;42.584;23.366;2023-03-14T06:55:31;6.93;;;5.23;;
66593;SDS011;53450;42.584;23.366;2023-03-14T06:57:57;8.40;;;4.40;;
66593;SDS011;53450;42.584;23.366;2023-03-14T07:00:49;8.43;;;4.93;;
66593;SDS011;53450;42.584;23.366;2023-03-14T07:07:16;7.65;;;4.20;;
66593;SDS011;53450;42.584;23.366;2023-03-14T07:09:42;9.40;;;4.47;;
66593;SDS011;53450;42.584;23.366;2023-03-14T07:12:15;7.13;;;4.40;;
66593;SDS011;53450;42.584;23.366;2023-03-14T07:14:43;9.07;;;4.40;;
66593;SDS011;53450;42.584;23.366;2023-03-14T07:17:09;5.93;;;4.33;;
66593;SDS011;53450;42.584;23.366;2023-03-14T07:19:38;5.70;;;3.93;;
66593;SDS011;53450;42.584;23.366;2023-03-14T07:22:04;5.67;;;3.90;;
66593;SDS011;53450;42.584;23.366;2023-03-14T07:24:30;6.47;;;4.20;;
66593;SDS011;53450;42.584;23.366;2023-03-14T07:26:56;12.27;;;4.83;;
66593;SDS011;53450;42.584;23.366;2023-03-14T07:29:21;6.30;;;4.07;;
66593;SDS011;53450;42.584;23.366;2023-03-14T07:31:47;6.83;;;4.30;;
66593;SDS011;53450;42.584;23.366;2023-03-14T07:34:17;5.17;;;3.67;;
66593;SDS011;53450;42.584;23.366;2023-03-14T07:36:45;8.87;;;4.27;;
66593;SDS011;53450;42.584;23.366;2023-03-14T07:39:11;12.83;;;5.73;;
66593;SDS011;53450;42.584;23.366;2023-03-14T07:41:37;23.17;;;6.60;;
66593;SDS011;53450;42.584;23.366;2023-03-14T07:44:39;6.57;;;4.93;;
66593;SDS011;53450;42.584;23.366;2023-03-14T07:47:05;8.63;;;4.60;;
66593;SDS011;53450;42.584;23.366;2023-03-14T07:49:55;3.97;;;3.07;;
66593;SDS011;53450;42.584;23.366;2023-03-14T07:52:21;6.27;;;4.03;;
66593;SDS011;53450;42.584;23.366;2023-03-14T07:54:48;8.43;;;4.83;;
66593;SDS011;53450;42.584;23.366;2023-03-14T07:57:14;8.87;;;5.10;;
66593;SDS011;53450;42.584;23.366;2023-03-14T07:59:41;13.97;;;5.63;;
66593;SDS011;53450;42.584;23.366;2023-03-14T08:02:09;8.50;;;4.93;;
66593;SDS011;53450;42.584;23.366;2023-03-14T08:04:37;6.43;;;4.60;;
66593;SDS011;53450;42.584;23.366;2023-03-14T08:07:04;8.57;;;4.53;;
66593;SDS011;53450;42.584;23.366;2023-03-14T08:09:29;10.37;;;5.00;;
66593;SDS011;53450;42.584;23.366;2023-03-14T08:11:55;6.30;;;4.67;;
66593;SDS011;53450;42.584;23.366;2023-03-14T08:14:20;13.77;;;7.10;;
66593;SDS011;53450;42.584;23.366;2023-03-14T08:19:19;10.97;;;5.50;;
66593;SDS011;53450;42.584;23.366;2023-03-14T08:21:46;19.43;;;8.50;;
66593;SDS011;53450;42.584;23.366;2023-03-14T08:24:15;12.10;;;7.47;;
66593;SDS011;53450;42.584;23.366;2023-03-14T08:26:52;11.13;;;6.30;;
66593;SDS011;53450;42.584;23.366;2023-03-14T08:29:18;13.33;;;5.63;;
66593;SDS011;53450;42.584;23.366;2023-03-14T08:31:43;10.30;;;5.50;;
66593;SDS011;53450;42.584;23.366;2023-03-14T08:34:09;14.03;;;5.13;;
66593;SDS011;53450;42.584;23.366;2023-03-14T08:36:35;8.33;;;6.03;;
66593;SDS011;53450;42.584;23.366;2023-03-14T08:39:00;8.03;;;5.47;;
66593;SDS011;53450;42.584;23.366;2023-03-14T08:41:26;10.83;;;5.73;;
66593;SDS011;53450;42.584;23.366;2023-03-14T08:43:52;9.60;;;5.97;;
66593;SDS011;53450;42.584;23.366;2023-03-14T08:46:17;8.77;;;6.03;;
66593;SDS011;53450;42.584;23.366;2023-03-14T08:48:43;13.75;;;6.80;;
66593;SDS011;53450;42.584;23.366;2023-03-14T08:51:09;10.67;;;5.70;;
66593;SDS011;53450;42.584;23.366;2023-03-14T08:53:38;16.17;;;6.47;;
66593;SDS011;53450;42.584;23.366;2023-03-14T08:56:03;14.65;;;5.03;;
66593;SDS011;53450;42.584;23.366;2023-03-14T08:58:31;8.07;;;4.85;;
66593;SDS011;53450;42.584;23.366;2023-03-14T09:00:57;7.60;;;5.33;;
66593;SDS011;53450;42.584;23.366;2023-03-14T09:03:23;7.53;;;5.93;;
66593;SDS011;53450;42.584;23.366;2023-03-14T09:05:50;19.67;;;6.72;;
66593;SDS011;53450;42.584;23.366;2023-03-14T09:08:16;12.77;;;6.47;;
66593;SDS011;53450;42.584;23.366;2023-03-14T09:10:42;9.88;;;5.70;;
66593;SDS011;53450;42.584;23.366;2023-03-14T09:13:07;11.20;;;5.75;;
66593;SDS011;53450;42.584;23.366;2023-03-14T09:15:33;12.93;;;6.10;;
66593;SDS011;53450;42.584;23.366;2023-03-14T09:17:58;18.70;;;8.30;;
66593;SDS011;53450;42.584;23.366;2023-03-14T09:20:24;8.43;;;5.85;;
66593;SDS011;53450;42.584;23.366;2023-03-14T09:22:50;17.17;;;6.45;;
66593;SDS011;53450;42.584;23.366;2023-03-14T09:25:16;10.65;;;6.40;;
66593;SDS011;53450;42.584;23.366;2023-03-14T09:27:42;12.40;;;6.22;;
66593;SDS011;53450;42.584;23.366;2023-03-14T09:30:07;11.52;;;5.90;;
66593;SDS011;53450;42.584;23.366;2023-03-14T09:32:33;12.75;;;6.35;;
66593;SDS011;53450;42.584;23.366;2023-03-14T09:34:59;9.43;;;7.07;;
66593;SDS011;53450;42.584;23.366;2023-03-14T09:37:25;13.25;;;6.85;;
66593;SDS011;53450;42.584;23.366;2023-03-14T09:39:50;11.60;;;6.40;;
66593;SDS011;53450;42.584;23.366;2023-03-14T09:42:17;11.50;;;7.90;;
66593;SDS011;53450;42.584;23.366;2023-03-14T09:44:52;18.35;;;7.50;;
66593;SDS011;53450;42.584;23.366;2023-03-14T09:47:29;13.75;;;6.38;;
66593;SDS011;53450;42.584;23.366;2023-03-14T09:49:55;17.13;;;6.55;;
66593;SDS011;53450;42.584;23.366;2023-03-14T09:52:22;12.00;;;5.88;;
66593;SDS011;53450;42.584;23.366;2023-03-14T09:54:57;13.70;;;6.53;;
66593;SDS011;53450;42.584;23.366;2023-03-14T09:57:45;10.45;;;6.82;;
66593;SDS011;53450;42.584;23.366;2023-03-14T10:00:17;15.85;;;6.63;;
66593;SDS011;53450;42.584;23.366;2023-03-14T10:02:57;13.73;;;6.60;;
66593;SDS011;53450;42.584;23.366;2023-03-14T10:05:32;9.30;;;6.00;;
66593;SDS011;53450;42.584;23.366;2023-03-14T10:07:58;10.50;;;6.88;;
66593;SDS011;53450;42.584;23.366;2023-03-14T10:10:24;36.17;;;6.88;;
66593;SDS011;53450;42.584;23.366;2023-03-14T10:12:59;11.48;;;5.88;;
66593;SDS011;53450;42.584;23.366;2023-03-14T10:15:42;19.85;;;6.28;;
66593;SDS011;53450;42.584;23.366;2023-03-14T10:18:13;9.95;;;6.43;;
66593;SDS011;53450;42.584;23.366;2023-03-14T10:20:48;14.85;;;6.43;;
66593;SDS011;53450;42.584;23.366;2023-03-14T10:25:41;10.05;;;4.95;;
66593;SDS011;53450;42.584;23.366;2023-03-14T14:32:39;2.35;;;2.15;;
66593;SDS011;53450;42.584;23.366;2023-03-14T14:35:06;3.67;;;2.03;;
66593;SDS011;53450;42.584;23.366;2023-03-14T14:37:33;2.22;;;2.03;;
66593;SDS011;53450;42.584;23.366;2023-03-14T14:40:07;10.05;;;2.22;;
66593;SDS011;53450;42.584;23.366;2023-03-14T14:42:38;176.23;;;10.30;;
66593;SDS011;53450;42.584;23.366;2023-03-14T14:45:05;27.52;;;2.58;;
66593;SDS011;53450;42.584;23.366;2023-03-14T14:47:35;6.25;;;2.05;;
66593;SDS011;53450;42.584;23.366;2023-03-14T14:50:39;2.22;;;1.80;;
66593;SDS011;53450;42.584;23.366;2023-03-14T14:53:42;20.55;;;2.35;;
66593;SDS011;53450;42.584;23.366;2023-03-14T14:56:35;7.68;;;2.58;;
66593;SDS011;53450;42.584;23.366;2023-03-14T14:59:27;48.47;;;3.75;;
66593;SDS011;53450;42.584;23.366;2023-03-14T15:01:55;37.08;;;2.85;;
66593;SDS011;53450;42.584;23.366;2023-03-14T15:04:26;4.75;;;2.15;;
66593;SDS011;53450;42.584;23.366;2023-03-14T15:07:24;3.78;;;2.00;;
66593;SDS011;53450;42.584;23.366;2023-03-14T15:10:16;5.67;;;2.00;;
66593;SDS011;53450;42.584;23.366;2023-03-14T15:13:10;2.78;;;1.90;;
66593;SDS011;53450;42.584;23.366;2023-03-14T15:15:42;2.90;;;2.20;;
66593;SDS011;53450;42.584;23.366;2023-03-14T15:18:16;36.88;;;3.08;;
66593;SDS011;53450;42.584;23.366;2023-03-14T15:20:44;2.75;;;2.03;;
66593;SDS011;53450;42.584;23.366;2023-03-14T15:23:12;10.07;;;2.15;;
66593;SDS011;53450;42.584;23.366;2023-03-14T15:25:39;1.58;;;1.48;;
66593;SDS011;53450;42.584;23.366;2023-03-14T15:28:10;5.15;;;2.25;;
66593;SDS011;53450;42.584;23.366;2023-03-14T15:30:45;7.50;;;2.13;;
66593;SDS011;53450;42.584;23.366;2023-03-14T15:33:16;28.73;;;4.83;;
66593;SDS011;53450;42.584;23.366;2023-03-14T15:35:44;10.35;;;3.20;;
66593;SDS011;53450;42.584;23.366;2023-03-14T15:38:12;12.65;;;4.40;;
66593;SDS011;53450;42.584;23.366;2023-03-14T15:40:40;6.28;;;3.08;;
66593;SDS011;53450;42.584;23.366;2023-03-14T15:43:09;9.40;;;3.13;;
66593;SDS011;53450;42.584;23.366;2023-03-14T15:45:35;5.82;;;4.82;;
66593;SDS011;53450;42.584;23.366;2023-03-14T15:48:01;32.83;;;21.80;;
66593;SDS011;53450;42.584;23.366;2023-03-14T15:50:27;84.35;;;31.33;;
66593;SDS011;53450;42.584;23.366;2023-03-14T15:52:53;11.07;;;5.15;;
66593;SDS011;53450;42.584;23.366;2023-03-14T15:55:19;14.07;;;3.30;;
66593;SDS011;53450;42.584;23.366;2023-03-14T15:57:45;17.58;;;4.07;;
66593;SDS011;53450;42.584;23.366;2023-03-14T16:00:15;29.42;;;5.03;;
66593;SDS011;53450;42.584;23.366;2023-03-14T16:02:47;15.25;;;5.65;;
66593;SDS011;53450;42.584;23.366;2023-03-14T16:05:16;17.08;;;6.00;;
66593;SDS011;53450;42.584;23.366;2023-03-14T16:07:46;41.88;;;6.80;;
66593;SDS011;53450;42.584;23.366;2023-03-14T16:10:14;5.90;;;3.85;;
66593;SDS011;53450;42.584;23.366;2023-03-14T16:12:40;2.75;;;2.38;;
66593;SDS011;53450;42.584;23.366;2023-03-14T16:15:08;6.50;;;2.35;;
66593;SDS011;53450;42.584;23.366;2023-03-14T16:17:34;2.38;;;2.00;;
66593;SDS011;53450;42.584;23.366;2023-03-14T16:20:02;2.50;;;2.15;;
66593;SDS011;53450;42.584;23.366;2023-03-14T16:22:29;5.03;;;2.00;;
66593;SDS011;53450;42.584;23.366;2023-03-14T16:25:00;2.92;;;2.05;;
66593;SDS011;53450;42.584;23.366;2023-03-14T16:27:36;4.05;;;2.25;;
66593;SDS011;53450;42.584;23.366;2023-03-14T16:30:03;4.63;;;1.92;;
66593;SDS011;53450;42.584;23.366;2023-03-14T16:32:30;6.50;;;1.83;;
66593;SDS011;53450;42.584;23.366;2023-03-14T16:34:56;6.25;;;2.05;;
66593;SDS011;53450;42.584;23.366;2023-03-14T16:37:23;20.23;;;3.00;;
66593;SDS011;53450;42.584;23.366;2023-03-14T16:39:52;7.40;;;2.83;;
66593;SDS011;53450;42.584;23.366;2023-03-14T16:42:21;6.18;;;3.00;;
66593;SDS011;53450;42.584;23.366;2023-03-14T16:44:48;4.57;;;2.90;;
66593;SDS011;53450;42.584;23.366;2023-03-14T16:47:15;5.80;;;3.33;;
66593;SDS011;53450;42.584;23.366;2023-03-14T16:49:41;13.63;;;7.68;;
66593;SDS011;53450;42.584;23.366;2023-03-14T16:52:07;17.00;;;9.23;;
66593;SDS011;53450;42.584;23.366;2023-03-14T16:54:34;14.85;;;4.60;;
66593;SDS011;53450;42.584;23.366;2023-03-14T16:57:01;8.48;;;3.40;;
66593;SDS011;53450;42.584;23.366;2023-03-14T16:59:27;7.25;;;5.25;;
66593;SDS011;53450;42.584;23.366;2023-03-14T17:01:54;8.80;;;5.25;;
66593;SDS011;53450;42.584;23.366;2023-03-14T17:04:21;2.70;;;2.10;;
66593;SDS011;53450;42.584;23.366;2023-03-14T17:06:48;2.67;;;2.00;;
66593;SDS011;53450;42.584;23.366;2023-03-14T17:09:16;314.20;;;14.40;;
66593;SDS011;53450;42.584;23.366;2023-03-14T17:11:42;17.42;;;3.05;;
66593;SDS011;53450;42.584;23.366;2023-03-14T17:14:09;6.75;;;4.15;;
66593;SDS011;53450;42.584;23.366;2023-03-14T17:16:35;8.57;;;4.85;;
66593;SDS011;53450;42.584;23.366;2023-03-14T17:19:01;4.05;;;3.13;;
66593;SDS011;53450;42.584;23.366;2023-03-14T17:21:27;4.00;;;2.80;;
66593;SDS011;53450;42.584;23.366;2023-03-14T17:23:52;28.73;;;2.95;;
66593;SDS011;53450;42.584;23.366;2023-03-14T17:26:18;2.35;;;2.15;;
66593;SDS011;53450;42.584;23.366;2023-03-14T17:28:44;7.18;;;2.20;;
66593;SDS011;53450;42.584;23.366;2023-03-14T17:31:15;4.78;;;2.60;;
66593;SDS011;53450;42.584;23.366;2023-03-14T17:34:09;20.20;;;3.83;;
66593;SDS011;53450;42.584;23.366;2023-03-14T17:36:36;3.33;;;2.00;;
66593;SDS011;53450;42.584;23.366;2023-03-14T17:39:02;2.85;;;2.17;;
66593;SDS011;53450;42.584;23.366;2023-03-14T17:41:27;4.38;;;3.33;;
66593;SDS011;53450;42.584;23.366;2023-03-14T17:43:53;4.97;;;3.33;;
66593;SDS011;53450;42.584;23.366;2023-03-14T17:46:19;7.63;;;2.20;;
66593;SDS011;53450;42.584;23.366;2023-03-14T17:49:09;5.85;;;2.15;;
66593;SDS011;53450;42.584;23.366;2023-03-14T17:52:00;3.58;;;2.33;;
66593;SDS011;53450;42.584;23.366;2023-03-14T17:54:26;7.45;;;2.83;;
66593;SDS011;53450;42.584;23.366;2023-03-14T17:56:51;3.85;;;2.40;;
66593;SDS011;53450;42.584;23.366;2023-03-14T17:59:17;4.72;;;2.42;;
66593;SDS011;53450;42.584;23.366;2023-03-14T18:01:44;3.45;;;2.40;;
66593;SDS011;53450;42.584;23.366;2023-03-14T18:04:09;8.70;;;3.30;;
66593;SDS011;53450;42.584;23.366;2023-03-14T18:06:35;4.55;;;2.72;;
66593;SDS011;53450;42.584;23.366;2023-03-14T18:09:01;4.63;;;3.10;;
66593;SDS011;53450;42.584;23.366;2023-03-14T18:11:28;4.95;;;2.97;;
66593;SDS011;53450;42.584;23.366;2023-03-14T18:13:54;8.30;;;2.92;;
66593;SDS011;53450;42.584;23.366;2023-03-14T18:16:20;5.53;;;2.75;;
66593;SDS011;53450;42.584;23.366;2023-03-14T18:18:46;5.47;;;2.60;;
66593;SDS011;53450;42.584;23.366;2023-03-14T18:21:14;4.10;;;2.80;;
66593;SDS011;53450;42.584;23.366;2023-03-14T18:23:43;7.63;;;3.15;;
66593;SDS011;53450;42.584;23.366;2023-03-14T18:26:09;4.15;;;3.20;;
66593;SDS011;53450;42.584;23.366;2023-03-14T18:28:34;4.47;;;2.53;;
66593;SDS011;53450;42.584;23.366;2023-03-14T18:31:01;3.67;;;2.20;;
66593;SDS011;53450;42.584;23.366;2023-03-14T18:33:27;3.00;;;2.30;;
66593;SDS011;53450;42.584;23.366;2023-03-14T18:35:54;3.38;;;2.00;;
66593;SDS011;53450;42.584;23.366;2023-03-14T18:38:22;17.80;;;13.70;;
66593;SDS011;53450;42.584;23.366;2023-03-14T18:40:48;4.32;;;2.40;;
66593;SDS011;53450;42.584;23.366;2023-03-14T18:43:14;4.50;;;2.00;;
66593;SDS011;53450;42.584;23.366;2023-03-14T18:45:39;14.45;;;2.50;;
66593;SDS011;53450;42.584;23.366;2023-03-14T18:48:05;2.65;;;2.42;;
66593;SDS011;53450;42.584;23.366;2023-03-14T18:50:34;2.63;;;2.23;;
66593;SDS011;53450;42.584;23.366;2023-03-14T18:53:00;3.33;;;2.17;;
66593;SDS011;53450;42.584;23.366;2023-03-14T18:55:26;3.72;;;2.30;;
66593;SDS011;53450;42.584;23.366;2023-03-14T18:57:51;5.53;;;2.40;;
66593;SDS011;53450;42.584;23.366;2023-03-14T19:00:17;2.50;;;2.05;;
66593;SDS011;53450;42.584;23.366;2023-03-14T19:03:09;6.37;;;3.73;;
66593;SDS011;53450;42.584;23.366;2023-03-14T19:05:35;6.22;;;3.10;;
66593;SDS011;53450;42.584;23.366;2023-03-14T19:08:02;11.07;;;4.40;;
66593;SDS011;53450;42.584;23.366;2023-03-14T19:10:28;8.30;;;2.63;;